sensor_id;sensor_type;location;lat;lon;timestamp;P1;durP1;ratioP1;P2;durP2;ratioP2
21352;SDS011;10834;52.268;6.770;2023-03-18T00:00:48;4.63;;;2.97;;
21352;SDS011;10834;52.268;6.770;2023-03-18T00:03:34;5.53;;;2.77;;
21352;SDS011;10834;52.268;6.770;2023-03-18T00:06:21;7.57;;;3.73;;
21352;SDS011;10834;52.268;6.770;2023-03-18T00:09:07;6.60;;;3.13;;
21352;SDS011;10834;52.268;6.770;2023-03-18T00:11:55;6.43;;;4.07;;
21352;SDS011;10834;52.268;6.770;2023-03-18T00:14:41;5.80;;;3.50;;
21352;SDS011;10834;52.268;6.770;2023-03-18T00:17:28;3.93;;;3.50;;
21352;SDS011;10834;52.268;6.770;2023-03-18T00:20:17;7.20;;;3.10;;
21352;SDS011;10834;52.268;6.770;2023-03-18T00:23:13;8.10;;;3.30;;
21352;SDS011;10834;52.268;6.770;2023-03-18T00:25:59;6.30;;;3.30;;
21352;SDS011;10834;52.268;6.770;2023-03-18T00:28:46;4.90;;;3.63;;
21352;SDS011;10834;52.268;6.770;2023-03-18T00:31:32;5.93;;;3.80;;
21352;SDS011;10834;52.268;6.770;2023-03-18T00:34:18;7.77;;;3.50;;
21352;SDS011;10834;52.268;6.770;2023-03-18T00:37:05;6.83;;;2.90;;
21352;SDS011;10834;52.268;6.770;2023-03-18T00:39:52;6.57;;;4.20;;
21352;SDS011;10834;52.268;6.770;2023-03-18T00:42:38;8.80;;;3.40;;
21352;SDS011;10834;52.268;6.770;2023-03-18T00:45:31;6.13;;;3.90;;
21352;SDS011;10834;52.268;6.770;2023-03-18T00:48:18;10.13;;;4.13;;
21352;SDS011;10834;52.268;6.770;2023-03-18T00:51:04;7.60;;;4.20;;
21352;SDS011;10834;52.268;6.770;2023-03-18T00:53:54;6.50;;;3.63;;
21352;SDS011;10834;52.268;6.770;2023-03-18T00:56:41;8.73;;;4.00;;
21352;SDS011;10834;52.268;6.770;2023-03-18T00:59:28;8.03;;;3.90;;
21352;SDS011;10834;52.268;6.770;2023-03-18T01:02:14;6.93;;;3.80;;
21352;SDS011;10834;52.268;6.770;2023-03-18T01:05:00;10.10;;;3.77;;
21352;SDS011;10834;52.268;6.770;2023-03-18T01:07:46;6.13;;;3.53;;
21352;SDS011;10834;52.268;6.770;2023-03-18T01:10:33;6.50;;;3.70;;
21352;SDS011;10834;52.268;6.770;2023-03-18T01:13:19;10.87;;;4.03;;
21352;SDS011;10834;52.268;6.770;2023-03-18T01:16:06;6.67;;;4.40;;
21352;SDS011;10834;52.268;6.770;2023-03-18T01:18:53;8.00;;;3.90;;
21352;SDS011;10834;52.268;6.770;2023-03-18T01:21:39;9.77;;;4.70;;
21352;SDS011;10834;52.268;6.770;2023-03-18T01:24:25;9.20;;;4.53;;
21352;SDS011;10834;52.268;6.770;2023-03-18T01:27:11;6.57;;;4.07;;
21352;SDS011;10834;52.268;6.770;2023-03-18T01:29:58;7.33;;;4.20;;
21352;SDS011;10834;52.268;6.770;2023-03-18T01:32:44;9.73;;;4.23;;
21352;SDS011;10834;52.268;6.770;2023-03-18T01:35:31;6.30;;;4.57;;
21352;SDS011;10834;52.268;6.770;2023-03-18T01:38:18;8.10;;;4.43;;
21352;SDS011;10834;52.268;6.770;2023-03-18T01:41:03;10.27;;;4.43;;
21352;SDS011;10834;52.268;6.770;2023-03-18T01:43:50;8.50;;;4.50;;
21352;SDS011;10834;52.268;6.770;2023-03-18T01:46:40;9.87;;;4.70;;
21352;SDS011;10834;52.268;6.770;2023-03-18T01:49:39;7.47;;;4.90;;
21352;SDS011;10834;52.268;6.770;2023-03-18T01:52:29;7.00;;;4.33;;
21352;SDS011;10834;52.268;6.770;2023-03-18T01:55:18;11.70;;;5.20;;
21352;SDS011;10834;52.268;6.770;2023-03-18T01:58:08;11.30;;;5.47;;
21352;SDS011;10834;52.268;6.770;2023-03-18T02:01:27;6.80;;;4.93;;
21352;SDS011;10834;52.268;6.770;2023-03-18T02:04:30;12.30;;;4.90;;
21352;SDS011;10834;52.268;6.770;2023-03-18T02:07:22;9.90;;;5.90;;
21352;SDS011;10834;52.268;6.770;2023-03-18T02:10:11;11.40;;;4.63;;
21352;SDS011;10834;52.268;6.770;2023-03-18T02:13:05;9.80;;;5.17;;
21352;SDS011;10834;52.268;6.770;2023-03-18T02:15:57;10.93;;;5.03;;
21352;SDS011;10834;52.268;6.770;2023-03-18T02:18:49;7.53;;;5.60;;
21352;SDS011;10834;52.268;6.770;2023-03-18T02:22:03;11.00;;;5.47;;
21352;SDS011;10834;52.268;6.770;2023-03-18T02:24:50;8.87;;;5.30;;
21352;SDS011;10834;52.268;6.770;2023-03-18T02:27:59;7.47;;;5.00;;
21352;SDS011;10834;52.268;6.770;2023-03-18T02:30:49;8.07;;;4.90;;
21352;SDS011;10834;52.268;6.770;2023-03-18T02:33:38;12.90;;;6.10;;
21352;SDS011;10834;52.268;6.770;2023-03-18T02:36:27;7.77;;;5.47;;
21352;SDS011;10834;52.268;6.770;2023-03-18T02:39:16;9.83;;;6.20;;
21352;SDS011;10834;52.268;6.770;2023-03-18T02:42:02;9.77;;;5.50;;
21352;SDS011;10834;52.268;6.770;2023-03-18T02:44:48;10.70;;;5.40;;
21352;SDS011;10834;52.268;6.770;2023-03-18T02:47:34;14.03;;;5.97;;
21352;SDS011;10834;52.268;6.770;2023-03-18T02:50:21;8.20;;;5.10;;
21352;SDS011;10834;52.268;6.770;2023-03-18T02:53:07;9.77;;;5.27;;
21352;SDS011;10834;52.268;6.770;2023-03-18T02:55:57;12.23;;;5.57;;
21352;SDS011;10834;52.268;6.770;2023-03-18T02:58:44;14.77;;;5.10;;
21352;SDS011;10834;52.268;6.770;2023-03-18T03:01:31;10.27;;;4.67;;
21352;SDS011;10834;52.268;6.770;2023-03-18T03:04:18;6.83;;;4.93;;
21352;SDS011;10834;52.268;6.770;2023-03-18T03:07:06;8.17;;;4.70;;
21352;SDS011;10834;52.268;6.770;2023-03-18T03:09:52;8.43;;;4.73;;
21352;SDS011;10834;52.268;6.770;2023-03-18T03:12:39;8.63;;;6.00;;
21352;SDS011;10834;52.268;6.770;2023-03-18T03:15:25;8.67;;;4.63;;
21352;SDS011;10834;52.268;6.770;2023-03-18T03:18:11;10.33;;;4.70;;
21352;SDS011;10834;52.268;6.770;2023-03-18T03:20:58;7.63;;;5.17;;
21352;SDS011;10834;52.268;6.770;2023-03-18T03:23:44;9.83;;;4.70;;
21352;SDS011;10834;52.268;6.770;2023-03-18T03:26:32;8.47;;;5.07;;
21352;SDS011;10834;52.268;6.770;2023-03-18T03:29:18;7.97;;;4.93;;
21352;SDS011;10834;52.268;6.770;2023-03-18T03:32:05;5.97;;;5.10;;
21352;SDS011;10834;52.268;6.770;2023-03-18T03:34:51;6.57;;;4.50;;
21352;SDS011;10834;52.268;6.770;2023-03-18T03:37:37;9.83;;;5.07;;
21352;SDS011;10834;52.268;6.770;2023-03-18T03:40:23;10.97;;;5.40;;
21352;SDS011;10834;52.268;6.770;2023-03-18T03:43:13;8.13;;;5.67;;
21352;SDS011;10834;52.268;6.770;2023-03-18T03:46:00;9.00;;;5.20;;
21352;SDS011;10834;52.268;6.770;2023-03-18T03:48:46;10.23;;;5.80;;
21352;SDS011;10834;52.268;6.770;2023-03-18T03:51:32;10.67;;;6.57;;
21352;SDS011;10834;52.268;6.770;2023-03-18T03:54:18;11.63;;;6.90;;
21352;SDS011;10834;52.268;6.770;2023-03-18T03:57:04;11.43;;;7.07;;
21352;SDS011;10834;52.268;6.770;2023-03-18T03:59:50;13.30;;;7.60;;
21352;SDS011;10834;52.268;6.770;2023-03-18T04:02:36;11.50;;;6.90;;
21352;SDS011;10834;52.268;6.770;2023-03-18T04:05:23;11.37;;;7.23;;
21352;SDS011;10834;52.268;6.770;2023-03-18T04:08:09;13.20;;;7.47;;
21352;SDS011;10834;52.268;6.770;2023-03-18T04:10:55;16.00;;;7.93;;
21352;SDS011;10834;52.268;6.770;2023-03-18T04:13:42;14.40;;;8.40;;
21352;SDS011;10834;52.268;6.770;2023-03-18T04:16:28;13.33;;;8.33;;
21352;SDS011;10834;52.268;6.770;2023-03-18T04:19:14;11.93;;;8.63;;
21352;SDS011;10834;52.268;6.770;2023-03-18T04:22:01;18.57;;;8.53;;
21352;SDS011;10834;52.268;6.770;2023-03-18T04:24:47;14.83;;;9.30;;
21352;SDS011;10834;52.268;6.770;2023-03-18T04:27:34;16.53;;;9.77;;
21352;SDS011;10834;52.268;6.770;2023-03-18T04:30:20;14.33;;;9.90;;
21352;SDS011;10834;52.268;6.770;2023-03-18T04:33:07;18.10;;;11.60;;
21352;SDS011;10834;52.268;6.770;2023-03-18T04:35:54;15.07;;;10.63;;
21352;SDS011;10834;52.268;6.770;2023-03-18T04:38:40;19.77;;;11.93;;
21352;SDS011;10834;52.268;6.770;2023-03-18T04:41:27;19.47;;;11.67;;
21352;SDS011;10834;52.268;6.770;2023-03-18T04:44:13;23.67;;;12.63;;
21352;SDS011;10834;52.268;6.770;2023-03-18T04:46:59;21.13;;;12.63;;
21352;SDS011;10834;52.268;6.770;2023-03-18T04:49:45;20.47;;;13.00;;
21352;SDS011;10834;52.268;6.770;2023-03-18T04:52:31;23.00;;;13.27;;
21352;SDS011;10834;52.268;6.770;2023-03-18T04:55:17;20.80;;;13.13;;
21352;SDS011;10834;52.268;6.770;2023-03-18T04:58:05;20.67;;;13.63;;
21352;SDS011;10834;52.268;6.770;2023-03-18T05:00:51;24.50;;;14.17;;
21352;SDS011;10834;52.268;6.770;2023-03-18T05:03:38;21.53;;;13.33;;
21352;SDS011;10834;52.268;6.770;2023-03-18T05:06:26;22.67;;;14.27;;
21352;SDS011;10834;52.268;6.770;2023-03-18T05:09:14;21.93;;;14.87;;
21352;SDS011;10834;52.268;6.770;2023-03-18T05:12:00;25.53;;;13.30;;
21352;SDS011;10834;52.268;6.770;2023-03-18T05:14:46;23.53;;;14.67;;
21352;SDS011;10834;52.268;6.770;2023-03-18T05:17:32;23.60;;;14.03;;
21352;SDS011;10834;52.268;6.770;2023-03-18T05:20:18;23.87;;;15.00;;
21352;SDS011;10834;52.268;6.770;2023-03-18T05:23:04;24.90;;;14.80;;
21352;SDS011;10834;52.268;6.770;2023-03-18T05:25:50;24.27;;;15.07;;
21352;SDS011;10834;52.268;6.770;2023-03-18T05:28:37;25.03;;;15.17;;
21352;SDS011;10834;52.268;6.770;2023-03-18T05:31:23;26.57;;;14.30;;
21352;SDS011;10834;52.268;6.770;2023-03-18T05:34:10;21.43;;;14.90;;
21352;SDS011;10834;52.268;6.770;2023-03-18T05:36:56;23.77;;;15.50;;
21352;SDS011;10834;52.268;6.770;2023-03-18T05:39:42;26.20;;;14.80;;
21352;SDS011;10834;52.268;6.770;2023-03-18T05:42:29;20.53;;;14.17;;
21352;SDS011;10834;52.268;6.770;2023-03-18T05:45:16;23.37;;;15.20;;
21352;SDS011;10834;52.268;6.770;2023-03-18T05:48:02;25.40;;;14.60;;
21352;SDS011;10834;52.268;6.770;2023-03-18T05:50:49;27.53;;;14.43;;
21352;SDS011;10834;52.268;6.770;2023-03-18T05:53:36;19.70;;;13.77;;
21352;SDS011;10834;52.268;6.770;2023-03-18T05:56:22;23.40;;;13.30;;
21352;SDS011;10834;52.268;6.770;2023-03-18T05:59:10;19.27;;;12.63;;
21352;SDS011;10834;52.268;6.770;2023-03-18T06:01:58;22.07;;;13.27;;
21352;SDS011;10834;52.268;6.770;2023-03-18T06:04:44;21.53;;;12.20;;
21352;SDS011;10834;52.268;6.770;2023-03-18T06:07:31;17.77;;;11.60;;
21352;SDS011;10834;52.268;6.770;2023-03-18T06:10:17;21.40;;;13.60;;
21352;SDS011;10834;52.268;6.770;2023-03-18T06:13:04;21.77;;;12.23;;
21352;SDS011;10834;52.268;6.770;2023-03-18T06:15:59;19.77;;;13.23;;
21352;SDS011;10834;52.268;6.770;2023-03-18T06:18:45;19.10;;;12.73;;
21352;SDS011;10834;52.268;6.770;2023-03-18T06:21:31;20.63;;;12.93;;
21352;SDS011;10834;52.268;6.770;2023-03-18T06:24:18;17.50;;;11.97;;
21352;SDS011;10834;52.268;6.770;2023-03-18T06:27:04;21.33;;;12.77;;
21352;SDS011;10834;52.268;6.770;2023-03-18T06:29:50;21.10;;;12.63;;
21352;SDS011;10834;52.268;6.770;2023-03-18T06:32:36;22.43;;;13.83;;
21352;SDS011;10834;52.268;6.770;2023-03-18T06:35:22;19.17;;;12.40;;
21352;SDS011;10834;52.268;6.770;2023-03-18T06:38:11;18.33;;;12.20;;
21352;SDS011;10834;52.268;6.770;2023-03-18T06:40:58;27.60;;;14.13;;
21352;SDS011;10834;52.268;6.770;2023-03-18T06:43:46;22.10;;;14.60;;
21352;SDS011;10834;52.268;6.770;2023-03-18T06:46:34;20.53;;;12.83;;
21352;SDS011;10834;52.268;6.770;2023-03-18T06:49:21;22.43;;;12.73;;
21352;SDS011;10834;52.268;6.770;2023-03-18T06:52:08;22.17;;;14.00;;
21352;SDS011;10834;52.268;6.770;2023-03-18T06:54:54;19.63;;;13.77;;
21352;SDS011;10834;52.268;6.770;2023-03-18T06:57:40;21.97;;;14.83;;
21352;SDS011;10834;52.268;6.770;2023-03-18T07:00:26;23.87;;;14.17;;
21352;SDS011;10834;52.268;6.770;2023-03-18T07:03:12;20.80;;;14.33;;
21352;SDS011;10834;52.268;6.770;2023-03-18T07:06:00;23.53;;;14.67;;
21352;SDS011;10834;52.268;6.770;2023-03-18T07:08:47;20.57;;;13.60;;
21352;SDS011;10834;52.268;6.770;2023-03-18T07:11:33;25.50;;;14.80;;
21352;SDS011;10834;52.268;6.770;2023-03-18T07:14:18;25.43;;;14.47;;
21352;SDS011;10834;52.268;6.770;2023-03-18T07:17:05;28.10;;;15.80;;
21352;SDS011;10834;52.268;6.770;2023-03-18T07:19:51;22.00;;;14.43;;
21352;SDS011;10834;52.268;6.770;2023-03-18T07:22:37;21.63;;;14.97;;
21352;SDS011;10834;52.268;6.770;2023-03-18T07:25:23;22.13;;;14.83;;
21352;SDS011;10834;52.268;6.770;2023-03-18T07:28:09;24.73;;;15.20;;
21352;SDS011;10834;52.268;6.770;2023-03-18T07:30:55;28.20;;;15.00;;
21352;SDS011;10834;52.268;6.770;2023-03-18T07:33:42;20.47;;;15.10;;
21352;SDS011;10834;52.268;6.770;2023-03-18T07:36:28;23.10;;;15.17;;
21352;SDS011;10834;52.268;6.770;2023-03-18T07:39:14;23.50;;;14.83;;
21352;SDS011;10834;52.268;6.770;2023-03-18T07:42:00;20.80;;;14.27;;
21352;SDS011;10834;52.268;6.770;2023-03-18T07:44:47;18.20;;;13.17;;
21352;SDS011;10834;52.268;6.770;2023-03-18T07:47:33;22.60;;;14.77;;
21352;SDS011;10834;52.268;6.770;2023-03-18T07:50:19;23.80;;;14.47;;
21352;SDS011;10834;52.268;6.770;2023-03-18T07:53:06;20.00;;;15.00;;
21352;SDS011;10834;52.268;6.770;2023-03-18T07:55:52;22.63;;;14.80;;
21352;SDS011;10834;52.268;6.770;2023-03-18T07:58:38;23.67;;;15.73;;
21352;SDS011;10834;52.268;6.770;2023-03-18T08:01:25;19.73;;;14.27;;
21352;SDS011;10834;52.268;6.770;2023-03-18T08:04:12;17.30;;;14.23;;
21352;SDS011;10834;52.268;6.770;2023-03-18T08:06:58;21.23;;;13.80;;
21352;SDS011;10834;52.268;6.770;2023-03-18T08:09:44;27.83;;;14.77;;
21352;SDS011;10834;52.268;6.770;2023-03-18T08:12:31;19.73;;;13.80;;
21352;SDS011;10834;52.268;6.770;2023-03-18T08:15:17;18.60;;;13.97;;
21352;SDS011;10834;52.268;6.770;2023-03-18T08:18:03;22.00;;;14.33;;
21352;SDS011;10834;52.268;6.770;2023-03-18T08:20:49;20.67;;;13.70;;
21352;SDS011;10834;52.268;6.770;2023-03-18T08:23:35;15.60;;;12.63;;
21352;SDS011;10834;52.268;6.770;2023-03-18T08:26:22;16.75;;;11.57;;
21352;SDS011;10834;52.268;6.770;2023-03-18T08:29:08;16.67;;;11.52;;
21352;SDS011;10834;52.268;6.770;2023-03-18T08:31:54;16.17;;;12.15;;
21352;SDS011;10834;52.268;6.770;2023-03-18T08:34:41;18.33;;;12.70;;
21352;SDS011;10834;52.268;6.770;2023-03-18T08:37:28;20.00;;;12.07;;
21352;SDS011;10834;52.268;6.770;2023-03-18T08:40:14;20.13;;;12.32;;
21352;SDS011;10834;52.268;6.770;2023-03-18T08:43:00;18.75;;;14.02;;
21352;SDS011;10834;52.268;6.770;2023-03-18T08:45:46;17.10;;;11.98;;
21352;SDS011;10834;52.268;6.770;2023-03-18T08:48:35;20.25;;;13.27;;
21352;SDS011;10834;52.268;6.770;2023-03-18T08:51:21;19.30;;;13.13;;
21352;SDS011;10834;52.268;6.770;2023-03-18T08:54:07;19.25;;;13.73;;
21352;SDS011;10834;52.268;6.770;2023-03-18T08:56:54;17.88;;;12.75;;
21352;SDS011;10834;52.268;6.770;2023-03-18T08:59:41;17.48;;;13.98;;
21352;SDS011;10834;52.268;6.770;2023-03-18T09:02:27;18.80;;;12.02;;
21352;SDS011;10834;52.268;6.770;2023-03-18T09:05:13;15.52;;;11.35;;
21352;SDS011;10834;52.268;6.770;2023-03-18T09:07:59;15.13;;;12.65;;
21352;SDS011;10834;52.268;6.770;2023-03-18T09:10:45;14.68;;;11.88;;
21352;SDS011;10834;52.268;6.770;2023-03-18T09:13:31;15.60;;;11.07;;
21352;SDS011;10834;52.268;6.770;2023-03-18T09:16:18;14.05;;;12.05;;
21352;SDS011;10834;52.268;6.770;2023-03-18T09:19:04;16.63;;;11.88;;
21352;SDS011;10834;52.268;6.770;2023-03-18T09:21:50;14.70;;;12.32;;
21352;SDS011;10834;52.268;6.770;2023-03-18T09:24:36;14.05;;;11.05;;
21352;SDS011;10834;52.268;6.770;2023-03-18T09:27:22;13.23;;;11.93;;
21352;SDS011;10834;52.268;6.770;2023-03-18T09:30:08;12.95;;;11.63;;
21352;SDS011;10834;52.268;6.770;2023-03-18T09:32:55;13.02;;;11.63;;
21352;SDS011;10834;52.268;6.770;2023-03-18T09:35:41;13.20;;;11.38;;
21352;SDS011;10834;52.268;6.770;2023-03-18T09:38:27;17.20;;;11.77;;
21352;SDS011;10834;52.268;6.770;2023-03-18T09:44:25;14.60;;;11.48;;
21352;SDS011;10834;52.268;6.770;2023-03-18T09:47:22;14.38;;;11.00;;
21352;SDS011;10834;52.268;6.770;2023-03-18T09:56:30;14.18;;;11.25;;
21352;SDS011;10834;52.268;6.770;2023-03-18T10:02:14;18.00;;;11.30;;
21352;SDS011;10834;52.268;6.770;2023-03-18T10:05:08;13.48;;;10.63;;
21352;SDS011;10834;52.268;6.770;2023-03-18T10:08:12;12.13;;;10.07;;
21352;SDS011;10834;52.268;6.770;2023-03-18T10:11:08;13.43;;;10.25;;
21352;SDS011;10834;52.268;6.770;2023-03-18T10:20:17;11.77;;;10.57;;
21352;SDS011;10834;52.268;6.770;2023-03-18T10:26:18;10.15;;;9.13;;
21352;SDS011;10834;52.268;6.770;2023-03-18T10:32:29;10.15;;;9.15;;
21352;SDS011;10834;52.268;6.770;2023-03-18T10:35:30;13.88;;;9.32;;
21352;SDS011;10834;52.268;6.770;2023-03-18T10:38:28;10.25;;;9.23;;
21352;SDS011;10834;52.268;6.770;2023-03-18T10:41:20;10.10;;;9.02;;
21352;SDS011;10834;52.268;6.770;2023-03-18T10:44:17;10.55;;;9.43;;
21352;SDS011;10834;52.268;6.770;2023-03-18T10:47:27;11.68;;;8.02;;
21352;SDS011;10834;52.268;6.770;2023-03-18T10:50:22;10.43;;;8.00;;
21352;SDS011;10834;52.268;6.770;2023-03-18T10:53:17;8.95;;;7.07;;
21352;SDS011;10834;52.268;6.770;2023-03-18T10:56:11;8.40;;;6.45;;
21352;SDS011;10834;52.268;6.770;2023-03-18T10:58:58;6.70;;;6.05;;
21352;SDS011;10834;52.268;6.770;2023-03-18T11:01:45;6.80;;;5.32;;
21352;SDS011;10834;52.268;6.770;2023-03-18T11:04:40;6.55;;;5.85;;
21352;SDS011;10834;52.268;6.770;2023-03-18T11:07:32;5.20;;;4.70;;
21352;SDS011;10834;52.268;6.770;2023-03-18T11:10:22;5.63;;;5.10;;
21352;SDS011;10834;52.268;6.770;2023-03-18T11:13:15;7.40;;;5.88;;
21352;SDS011;10834;52.268;6.770;2023-03-18T11:16:02;7.13;;;6.13;;
21352;SDS011;10834;52.268;6.770;2023-03-18T11:18:48;6.40;;;5.55;;
21352;SDS011;10834;52.268;6.770;2023-03-18T11:21:37;6.88;;;5.70;;
21352;SDS011;10834;52.268;6.770;2023-03-18T11:24:25;6.70;;;4.93;;
21352;SDS011;10834;52.268;6.770;2023-03-18T11:27:24;7.70;;;6.22;;
21352;SDS011;10834;52.268;6.770;2023-03-18T11:35:58;5.85;;;4.97;;
21352;SDS011;10834;52.268;6.770;2023-03-18T11:38:56;5.25;;;4.85;;
21352;SDS011;10834;52.268;6.770;2023-03-18T11:41:45;4.18;;;3.80;;
21352;SDS011;10834;52.268;6.770;2023-03-18T11:44:33;6.03;;;4.93;;
21352;SDS011;10834;52.268;6.770;2023-03-18T11:47:22;3.92;;;2.75;;
21352;SDS011;10834;52.268;6.770;2023-03-18T11:50:17;4.32;;;3.92;;
21352;SDS011;10834;52.268;6.770;2023-03-18T11:53:33;4.63;;;3.17;;
21352;SDS011;10834;52.268;6.770;2023-03-18T11:56:41;3.53;;;3.22;;
21352;SDS011;10834;52.268;6.770;2023-03-18T12:02:38;4.35;;;4.05;;
21352;SDS011;10834;52.268;6.770;2023-03-18T12:11:58;4.40;;;3.90;;
21352;SDS011;10834;52.268;6.770;2023-03-18T12:18:22;5.07;;;4.25;;
21352;SDS011;10834;52.268;6.770;2023-03-18T12:21:33;4.32;;;3.72;;
21352;SDS011;10834;52.268;6.770;2023-03-18T12:36:42;5.28;;;3.53;;
21352;SDS011;10834;52.268;6.770;2023-03-18T12:43:00;4.22;;;3.85;;
21352;SDS011;10834;52.268;6.770;2023-03-18T12:46:03;4.03;;;3.17;;
21352;SDS011;10834;52.268;6.770;2023-03-18T12:49:11;3.88;;;3.47;;
21352;SDS011;10834;52.268;6.770;2023-03-18T12:55:16;7.07;;;3.20;;
21352;SDS011;10834;52.268;6.770;2023-03-18T12:58:15;4.22;;;3.63;;
21352;SDS011;10834;52.268;6.770;2023-03-18T13:01:07;5.00;;;3.63;;
21352;SDS011;10834;52.268;6.770;2023-03-18T13:04:03;3.78;;;3.40;;
21352;SDS011;10834;52.268;6.770;2023-03-18T13:06:53;6.63;;;3.17;;
21352;SDS011;10834;52.268;6.770;2023-03-18T13:12:57;3.42;;;2.38;;
21352;SDS011;10834;52.268;6.770;2023-03-18T13:15:49;3.42;;;2.45;;
21352;SDS011;10834;52.268;6.770;2023-03-18T13:18:42;3.22;;;2.88;;
21352;SDS011;10834;52.268;6.770;2023-03-18T13:21:32;4.13;;;2.58;;
21352;SDS011;10834;52.268;6.770;2023-03-18T13:27:43;3.30;;;2.25;;
21352;SDS011;10834;52.268;6.770;2023-03-18T13:43:13;3.53;;;2.03;;
21352;SDS011;10834;52.268;6.770;2023-03-18T13:46:01;4.18;;;1.52;;
21352;SDS011;10834;52.268;6.770;2023-03-18T13:48:52;3.50;;;1.67;;
21352;SDS011;10834;52.268;6.770;2023-03-18T13:51:50;3.63;;;2.13;;
21352;SDS011;10834;52.268;6.770;2023-03-18T13:54:41;2.92;;;2.22;;
21352;SDS011;10834;52.268;6.770;2023-03-18T14:00:30;3.47;;;1.77;;
21352;SDS011;10834;52.268;6.770;2023-03-18T14:03:26;2.40;;;1.40;;
21352;SDS011;10834;52.268;6.770;2023-03-18T14:09:20;2.05;;;1.58;;
21352;SDS011;10834;52.268;6.770;2023-03-18T14:12:16;1.90;;;1.20;;
21352;SDS011;10834;52.268;6.770;2023-03-18T14:17:57;1.45;;;1.35;;
21352;SDS011;10834;52.268;6.770;2023-03-18T14:20:44;2.88;;;1.50;;
21352;SDS011;10834;52.268;6.770;2023-03-18T14:23:32;1.98;;;1.30;;
21352;SDS011;10834;52.268;6.770;2023-03-18T14:26:23;1.98;;;1.77;;
21352;SDS011;10834;52.268;6.770;2023-03-18T14:29:15;2.53;;;1.75;;
21352;SDS011;10834;52.268;6.770;2023-03-18T14:38:13;1.92;;;1.52;;
21352;SDS011;10834;52.268;6.770;2023-03-18T14:41:12;3.38;;;1.55;;
21352;SDS011;10834;52.268;6.770;2023-03-18T14:44:25;1.85;;;1.30;;
21352;SDS011;10834;52.268;6.770;2023-03-18T14:47:16;2.03;;;1.23;;
21352;SDS011;10834;52.268;6.770;2023-03-18T14:50:15;1.50;;;1.40;;
21352;SDS011;10834;52.268;6.770;2023-03-18T14:56:16;2.53;;;1.50;;
21352;SDS011;10834;52.268;6.770;2023-03-18T14:59:03;3.10;;;1.40;;
21352;SDS011;10834;52.268;6.770;2023-03-18T15:01:49;2.08;;;1.50;;
21352;SDS011;10834;52.268;6.770;2023-03-18T15:04:37;2.88;;;1.60;;
21352;SDS011;10834;52.268;6.770;2023-03-18T15:07:28;1.77;;;1.33;;
21352;SDS011;10834;52.268;6.770;2023-03-18T15:10:21;4.22;;;1.75;;
21352;SDS011;10834;52.268;6.770;2023-03-18T15:13:13;2.90;;;1.27;;
21352;SDS011;10834;52.268;6.770;2023-03-18T15:16:04;2.28;;;1.58;;
21352;SDS011;10834;52.268;6.770;2023-03-18T15:18:55;1.58;;;1.30;;
21352;SDS011;10834;52.268;6.770;2023-03-18T15:21:42;1.27;;;1.10;;
21352;SDS011;10834;52.268;6.770;2023-03-18T15:24:29;1.73;;;1.55;;
21352;SDS011;10834;52.268;6.770;2023-03-18T15:27:19;3.35;;;1.48;;
21352;SDS011;10834;52.268;6.770;2023-03-18T15:30:20;1.30;;;1.20;;
21352;SDS011;10834;52.268;6.770;2023-03-18T15:33:16;3.65;;;1.35;;
21352;SDS011;10834;52.268;6.770;2023-03-18T15:36:11;3.25;;;1.40;;
21352;SDS011;10834;52.268;6.770;2023-03-18T15:38:59;2.08;;;1.67;;
21352;SDS011;10834;52.268;6.770;2023-03-18T15:41:49;2.58;;;1.67;;
21352;SDS011;10834;52.268;6.770;2023-03-18T15:44:37;2.15;;;1.50;;
21352;SDS011;10834;52.268;6.770;2023-03-18T15:47:26;2.38;;;1.20;;
21352;SDS011;10834;52.268;6.770;2023-03-18T15:50:24;2.22;;;1.48;;
21352;SDS011;10834;52.268;6.770;2023-03-18T15:56:06;5.25;;;2.22;;
21352;SDS011;10834;52.268;6.770;2023-03-18T15:59:04;3.10;;;1.50;;
21352;SDS011;10834;52.268;6.770;2023-03-18T16:01:56;8.02;;;4.72;;
21352;SDS011;10834;52.268;6.770;2023-03-18T16:04:43;3.95;;;3.15;;
21352;SDS011;10834;52.268;6.770;2023-03-18T16:07:30;3.70;;;3.03;;
21352;SDS011;10834;52.268;6.770;2023-03-18T16:10:17;2.60;;;2.40;;
21352;SDS011;10834;52.268;6.770;2023-03-18T16:13:04;4.13;;;2.20;;
21352;SDS011;10834;52.268;6.770;2023-03-18T16:15:51;4.13;;;2.03;;
21352;SDS011;10834;52.268;6.770;2023-03-18T16:18:38;3.53;;;2.83;;
21352;SDS011;10834;52.268;6.770;2023-03-18T16:21:24;2.50;;;2.35;;
21352;SDS011;10834;52.268;6.770;2023-03-18T16:24:11;5.88;;;2.78;;
21352;SDS011;10834;52.268;6.770;2023-03-18T16:26:57;4.63;;;2.77;;
21352;SDS011;10834;52.268;6.770;2023-03-18T16:29:43;2.93;;;2.53;;
21352;SDS011;10834;52.268;6.770;2023-03-18T16:32:29;7.30;;;3.13;;
21352;SDS011;10834;52.268;6.770;2023-03-18T16:35:17;3.90;;;3.00;;
21352;SDS011;10834;52.268;6.770;2023-03-18T16:38:10;4.50;;;2.43;;
21352;SDS011;10834;52.268;6.770;2023-03-18T16:40:58;9.23;;;2.63;;
21352;SDS011;10834;52.268;6.770;2023-03-18T16:43:44;3.57;;;2.23;;
21352;SDS011;10834;52.268;6.770;2023-03-18T16:46:33;2.83;;;2.40;;
21352;SDS011;10834;52.268;6.770;2023-03-18T16:49:26;3.83;;;2.27;;
21352;SDS011;10834;52.268;6.770;2023-03-18T16:52:15;3.03;;;2.07;;
21352;SDS011;10834;52.268;6.770;2023-03-18T16:55:02;1.93;;;1.83;;
21352;SDS011;10834;52.268;6.770;2023-03-18T16:57:57;3.50;;;1.50;;
21352;SDS011;10834;52.268;6.770;2023-03-18T17:00:44;4.20;;;2.17;;
21352;SDS011;10834;52.268;6.770;2023-03-18T17:03:34;2.27;;;1.70;;
21352;SDS011;10834;52.268;6.770;2023-03-18T17:06:21;2.33;;;1.73;;
21352;SDS011;10834;52.268;6.770;2023-03-18T17:09:08;3.13;;;2.10;;
21352;SDS011;10834;52.268;6.770;2023-03-18T17:11:57;5.10;;;2.30;;
21352;SDS011;10834;52.268;6.770;2023-03-18T17:14:50;2.70;;;2.00;;
21352;SDS011;10834;52.268;6.770;2023-03-18T17:17:39;3.73;;;2.27;;
21352;SDS011;10834;52.268;6.770;2023-03-18T17:20:26;4.27;;;2.47;;
21352;SDS011;10834;52.268;6.770;2023-03-18T17:23:17;4.83;;;2.50;;
21352;SDS011;10834;52.268;6.770;2023-03-18T17:26:05;7.67;;;2.67;;
21352;SDS011;10834;52.268;6.770;2023-03-18T17:28:56;2.30;;;2.07;;
21352;SDS011;10834;52.268;6.770;2023-03-18T17:31:43;3.93;;;2.90;;
21352;SDS011;10834;52.268;6.770;2023-03-18T17:34:29;4.13;;;2.50;;
21352;SDS011;10834;52.268;6.770;2023-03-18T17:37:16;3.67;;;3.13;;
21352;SDS011;10834;52.268;6.770;2023-03-18T17:40:03;6.57;;;3.40;;
21352;SDS011;10834;52.268;6.770;2023-03-18T17:42:50;6.70;;;3.90;;
21352;SDS011;10834;52.268;6.770;2023-03-18T17:45:36;9.43;;;6.73;;
21352;SDS011;10834;52.268;6.770;2023-03-18T17:48:23;6.53;;;4.90;;
21352;SDS011;10834;52.268;6.770;2023-03-18T17:51:17;5.37;;;4.33;;
21352;SDS011;10834;52.268;6.770;2023-03-18T17:54:08;4.43;;;3.87;;
21352;SDS011;10834;52.268;6.770;2023-03-18T17:56:56;7.37;;;5.07;;
21352;SDS011;10834;52.268;6.770;2023-03-18T17:59:42;7.27;;;5.60;;
21352;SDS011;10834;52.268;6.770;2023-03-18T18:02:28;15.43;;;8.03;;
21352;SDS011;10834;52.268;6.770;2023-03-18T18:05:16;12.17;;;7.27;;
21352;SDS011;10834;52.268;6.770;2023-03-18T18:08:05;13.17;;;7.73;;
21352;SDS011;10834;52.268;6.770;2023-03-18T18:11:03;9.10;;;7.00;;
21352;SDS011;10834;52.268;6.770;2023-03-18T18:17:16;18.83;;;13.63;;
21352;SDS011;10834;52.268;6.770;2023-03-18T18:20:02;11.70;;;9.53;;
21352;SDS011;10834;52.268;6.770;2023-03-18T18:22:50;9.77;;;8.07;;
21352;SDS011;10834;52.268;6.770;2023-03-18T18:25:39;9.73;;;8.03;;
21352;SDS011;10834;52.268;6.770;2023-03-18T18:28:27;12.13;;;8.23;;
21352;SDS011;10834;52.268;6.770;2023-03-18T18:31:16;12.63;;;9.03;;
21352;SDS011;10834;52.268;6.770;2023-03-18T18:34:03;14.77;;;9.90;;